Time;durP1;ratioP1;P1;durP2;ratioP2;P2;SDS_P1;SDS_P2;PMS_P1;PMS_P2;Temp;Humidity;BMP_temperature;BMP_pressure;BME280_temperature;BME280_humidity;BME280_pressure;Samples;Min_cycle;Max_cycle;Signal;HPM_P1;HPM_P2
2021/08/02 05:12:45;;;;;;;18.00;10.80;;;;;;;37.71;33.71;100428.98;1747315;81;22009;-67
2021/08/02 05:15:42;;;;;;;28.77;10.93;;;;;;;38.56;31.80;100424.31;1764176;81;21996;-68
2021/08/02 05:18:16;;;;;;;10.72;9.63;;;;;;;39.00;30.77;100426.28;1659069;86;21207;-68
2021/08/02 05:20:49;;;;;;;15.08;9.70;;;;;;;39.50;29.52;100427.22;1682554;85;21391;-68
2021/08/02 05:23:22;;;;;;;16.15;9.85;;;;;;;39.88;28.90;100423.23;1682837;85;21259;-67
2021/08/02 05:25:55;;;;;;;16.40;9.28;;;;;;;40.23;28.15;100423.37;1669017;85;21222;-68
2021/08/02 05:28:29;;;;;;;12.47;9.40;;;;;;;40.66;27.37;100422.63;1669608;86;21234;-69
2021/08/02 05:31:04;;;;;;;14.05;9.48;;;;;;;40.90;26.99;100422.82;1670388;86;21191;-68
2021/08/02 05:33:37;;;;;;;12.78;9.65;;;;;;;41.03;26.82;100425.08;1670398;86;21186;-66
2021/08/02 05:36:10;;;;;;;17.80;9.65;;;;;;;41.27;26.46;100422.49;1670276;86;21333;-67
2021/08/02 05:47:02;;;;;;;13.68;8.68;;;;;;;42.49;24.96;100409.25;1669893;85;21202;-67
2021/08/02 05:49:35;;;;;;;11.65;8.48;;;;;;;43.03;24.05;100412.56;1670585;86;21321;-66
2021/08/02 05:56:19;;;;;;;19.50;8.83;;;;;;;43.51;23.62;100417.92;1672451;85;21706;-73
2021/08/02 05:58:52;;;;;;;14.03;8.73;;;;;;;44.13;23.41;100409.54;1671427;86;21309;-70
2021/08/02 06:01:27;;;;;;;14.98;8.15;;;;;;;44.59;22.51;100413.44;1672244;86;21849;-65
2021/08/02 06:04:01;;;;;;;10.03;8.08;;;;;;;45.06;21.98;100409.16;1670255;86;21234;-68
2021/08/02 06:06:34;;;;;;;15.75;8.53;;;;;;;45.56;21.39;100408.20;1670955;86;21195;-68
2021/08/02 06:09:10;;;;;;;9.63;8.10;;;;;;;45.94;20.96;100413.09;1669505;86;22047;-70
2021/08/02 06:11:41;;;;;;;15.48;8.03;;;;;;;46.30;20.56;100404.00;1673114;86;21191;-69
2021/08/02 06:14:15;;;;;;;11.68;7.97;;;;;;;46.62;20.18;100405.32;1670037;86;21203;-69
2021/08/02 06:16:50;;;;;;;12.23;8.43;;;;;;;46.92;19.46;100405.34;1667497;85;21206;-70
2021/08/02 06:19:23;;;;;;;10.98;7.85;;;;;;;47.12;18.95;100400.70;1652558;86;21338;-68
2021/08/02 06:26:06;;;;;;;9.28;6.40;;;;;;;47.14;18.68;100401.11;1656360;86;21302;-72
2021/08/02 06:32:49;;;;;;;13.30;6.25;;;;;;;47.56;17.57;100402.77;1653490;86;22023;-69
2021/08/02 06:35:22;;;;;;;13.15;6.72;;;;;;;47.76;17.66;100396.65;1653963;86;21898;-70
2021/08/02 06:37:56;;;;;;;9.65;6.92;;;;;;;48.13;17.56;100397.19;1653379;86;22044;-70
2021/08/02 06:40:29;;;;;;;13.85;6.40;;;;;;;48.44;17.26;100391.86;1653922;86;21168;-69
2021/08/02 06:43:02;;;;;;;12.30;7.22;;;;;;;48.80;17.08;100379.60;1653414;86;21211;-68
2021/08/02 06:45:35;;;;;;;10.55;6.50;;;;;;;49.11;16.98;100384.48;1654082;86;21247;-68
2021/08/02 06:48:09;;;;;;;11.18;6.83;;;;;;;49.34;16.70;100378.63;1653295;86;21231;-67
2021/08/02 06:50:42;;;;;;;10.28;6.12;;;;;;;49.55;16.06;100378.70;1654872;86;21373;-66
2021/08/02 06:53:15;;;;;;;9.30;5.97;;;;;;;49.59;15.83;100376.11;1658966;86;21220;-71
2021/08/02 06:59:58;;;;;;;12.65;7.70;;;;;;;50.05;15.25;100370.58;1652979;86;21393;-68
2021/08/02 07:02:31;;;;;;;8.83;6.80;;;;;;;50.23;15.07;100360.85;1653975;86;22087;-68
2021/08/02 07:05:05;;;;;;;12.78;6.62;;;;;;;50.17;15.04;100360.42;1653937;86;21195;-71
2021/08/02 07:07:38;;;;;;;17.45;7.28;;;;;;;50.18;15.05;100358.44;1653923;86;21205;-69
2021/08/02 07:10:12;;;;;;;12.35;6.58;;;;;;;50.28;15.12;100361.84;1653127;86;21430;-69
2021/08/02 07:12:45;;;;;;;10.70;6.50;;;;;;;50.43;14.71;100359.99;1653910;86;21184;-68
2021/08/02 07:19:29;;;;;;;9.43;6.60;;;;;;;50.61;14.55;100359.98;1652641;86;21231;-69
2021/08/02 07:22:03;;;;;;;11.88;7.65;;;;;;;50.86;14.32;100357.87;1651410;86;21195;-68
2021/08/02 07:24:36;;;;;;;9.50;6.87;;;;;;;51.11;14.09;100373.11;1651989;86;22016;-74
2021/08/02 07:27:09;;;;;;;10.40;6.47;;;;;;;51.19;14.14;100364.88;1655067;86;21771;-73
2021/08/02 07:29:44;;;;;;;12.58;7.40;;;;;;;51.47;14.07;100367.54;1651948;86;21200;-72
2021/08/02 07:32:18;;;;;;;10.95;7.08;;;;;;;51.94;13.73;100364.61;1653125;86;21184;-70
2021/08/02 07:34:51;;;;;;;13.50;7.10;;;;;;;52.27;13.20;100366.69;1652016;86;21414;-69
2021/08/02 07:41:33;;;;;;;12.43;7.78;;;;;;;52.31;13.00;100362.48;1657188;86;21850;-73
2021/08/02 07:44:07;;;;;;;11.30;7.47;;;;;;;52.10;13.25;100364.84;1652285;86;21225;-70
2021/08/02 07:50:50;;;;;;;12.40;7.35;;;;;;;51.81;12.98;100364.88;1653868;86;21191;-68
2021/08/02 07:53:23;;;;;;;13.40;6.90;;;;;;;51.48;13.08;100362.13;1652760;86;21989;-70
2021/08/02 07:55:57;;;;;;;17.95;7.50;;;;;;;51.32;13.20;100356.87;1653141;86;21860;-70
2021/08/02 07:58:30;;;;;;;14.23;7.00;;;;;;;51.24;13.39;100361.70;1652591;86;22079;-70
2021/08/02 08:05:14;;;;;;;12.10;7.10;;;;;;;51.21;13.53;100364.49;1656197;86;21223;-69
2021/08/02 08:07:52;;;;;;;15.10;7.65;;;;;;;51.05;13.44;100360.78;1652749;86;21243;-69
2021/08/02 08:14:35;;;;;;;8.85;7.40;;;;;;;50.76;14.30;100351.73;1652446;86;21223;-70
2021/08/02 08:17:08;;;;;;;12.40;6.92;;;;;;;50.62;14.07;100349.59;1652892;86;21304;-71
2021/08/02 08:23:38;;;;;;;9.25;6.92;;;;;;;50.62;13.70;100348.20;1641174;86;21189;-74
2021/08/02 08:26:11;;;;;;;11.55;6.87;;;;;;;50.56;14.08;100342.28;1664044;86;21304;-75
2021/08/02 08:28:45;;;;;;;9.10;6.87;;;;;;;50.57;13.76;100341.06;1644908;87;21376;-73
2021/08/02 08:31:19;;;;;;;7.67;6.53;;;;;;;50.53;13.52;100336.08;1691858;84;21327;-71
2021/08/02 08:38:01;;;;;;;10.75;6.78;;;;;;;49.97;13.81;100332.02;1693307;84;21185;-70
2021/08/02 08:40:35;;;;;;;17.32;7.37;;;;;;;49.58;14.47;100327.83;1692124;84;21327;-70
2021/08/02 08:43:09;;;;;;;8.63;6.60;;;;;;;49.59;14.24;100326.62;1693409;84;21322;-72
2021/08/02 08:45:47;;;;;;;8.65;6.80;;;;;;;49.50;14.31;100324.21;1692185;84;21213;-73
2021/08/02 08:48:20;;;;;;;8.90;6.85;;;;;;;49.37;14.56;100322.22;1693764;84;21356;-72
2021/08/02 08:50:53;;;;;;;10.60;7.25;;;;;;;49.16;14.54;100323.73;1698247;84;21343;-71
2021/08/02 08:53:27;;;;;;;9.70;7.08;;;;;;;49.01;14.46;100322.13;1695360;84;21382;-71
2021/08/02 08:56:01;;;;;;;11.30;7.25;;;;;;;48.92;14.33;100322.30;1692559;84;22131;-72
2021/08/02 08:58:34;;;;;;;7.33;6.55;;;;;;;48.82;14.28;100317.47;1692521;84;21204;-70
2021/08/02 09:01:08;;;;;;;9.33;7.00;;;;;;;48.58;14.42;100314.17;1691209;84;21518;-72
2021/08/02 09:03:53;;;;;;;9.80;6.70;;;;;;;48.32;14.49;100312.25;1692605;84;21257;-70
2021/08/02 09:06:26;;;;;;;8.50;6.75;;;;;;;48.05;14.81;100314.44;1656598;86;21538;-69
2021/08/02 09:09:00;;;;;;;8.60;6.15;;;;;;;47.74;14.82;100317.16;1641809;87;21340;-71
2021/08/02 09:11:33;;;;;;;9.25;6.03;;;;;;;47.49;15.01;100325.84;1639885;87;21347;-71
2021/08/02 09:14:15;;;;;;;9.75;6.40;;;;;;;47.27;14.78;100310.13;1695856;84;21335;-71
2021/08/02 09:21:11;;;;;;;6.72;6.00;;;;;;;46.66;15.33;100303.08;1694650;84;21221;-72
2021/08/02 09:23:52;;;;;;;10.53;6.58;;;;;;;46.18;15.71;100295.67;1696768;84;21728;-73
2021/08/02 09:26:31;;;;;;;8.03;6.67;;;;;;;45.97;15.92;100292.02;1698756;84;21307;-72
2021/08/02 09:29:05;;;;;;;8.75;6.78;;;;;;;45.77;16.40;100292.42;1699463;84;21350;-72
2021/08/02 09:31:47;;;;;;;14.55;7.53;;;;;;;45.64;16.45;100296.00;1702141;84;21345;-71
2021/08/02 09:34:22;;;;;;;10.30;7.45;;;;;;;45.33;16.76;100292.06;1700360;84;21367;-72
2021/08/02 09:36:58;;;;;;;9.73;7.08;;;;;;;44.99;17.10;100291.00;1700630;84;21315;-72
2021/08/02 09:39:35;;;;;;;10.18;6.33;;;;;;;44.69;17.46;100286.61;1702551;84;21249;-72
2021/08/02 09:46:20;;;;;;;11.65;7.37;;;;;;;44.18;17.60;100273.48;1696635;84;21328;-69
2021/08/02 09:48:55;;;;;;;8.63;6.87;;;;;;;43.82;18.07;100277.91;1699154;84;21185;-69
2021/08/02 09:51:28;;;;;;;10.15;7.17;;;;;;;43.27;18.56;100276.64;1677327;84;21268;-70
2021/08/02 09:54:01;;;;;;;10.68;7.55;;;;;;;42.72;19.40;100276.88;1697134;84;21531;-72
2021/08/02 09:56:34;;;;;;;9.28;7.22;;;;;;;42.45;20.12;100277.61;1696624;84;21232;-72
2021/08/02 09:59:09;;;;;;;10.85;7.37;;;;;;;42.21;20.50;100273.53;1697346;84;22042;-70
2021/08/02 10:01:43;;;;;;;14.38;7.45;;;;;;;41.97;20.93;100277.08;1702335;84;21365;-74
2021/08/02 10:04:16;;;;;;;11.53;7.33;;;;;;;41.54;20.95;100267.98;1673556;84;21587;-73
2021/08/02 10:06:50;;;;;;;11.43;8.30;;;;;;;41.02;20.91;100266.92;1694846;84;21649;-73
2021/08/02 10:13:37;;;;;;;10.45;7.85;;;;;;;40.43;21.71;100262.70;1697518;84;21173;-73
2021/08/02 10:16:15;;;;;;;9.78;7.37;;;;;;;40.00;21.74;100263.77;1697214;84;21339;-70
2021/08/02 10:23:00;;;;;;;23.30;10.08;;;;;;;39.55;22.84;100268.14;1696017;84;21399;-73
2021/08/02 10:25:41;;;;;;;14.25;9.33;;;;;;;39.32;23.58;100260.70;1701538;84;21624;-71
2021/08/02 10:28:19;;;;;;;13.30;9.53;;;;;;;39.30;23.81;100253.94;1702182;84;21487;-72
2021/08/02 10:31:08;;;;;;;13.55;10.03;;;;;;;39.37;23.60;100255.61;1697557;84;21319;-73
2021/08/02 10:33:42;;;;;;;13.32;9.65;;;;;;;39.39;23.44;100245.94;1696352;84;21308;-73
2021/08/02 10:36:17;;;;;;;12.85;9.78;;;;;;;39.45;23.47;100251.49;1696931;84;21241;-73
2021/08/02 10:38:53;;;;;;;11.93;8.98;;;;;;;39.48;22.78;100249.44;1696964;84;21190;-75
2021/08/02 10:41:31;;;;;;;13.75;9.48;;;;;;;39.51;22.33;100246.61;1696984;84;21316;-71
2021/08/02 10:44:16;;;;;;;11.15;9.08;;;;;;;39.50;22.24;100245.02;1697049;84;21296;-72
2021/08/02 10:46:49;;;;;;;12.50;8.95;;;;;;;39.38;22.41;100244.34;1696691;84;21379;-72
2021/08/02 10:49:22;;;;;;;14.93;9.15;;;;;;;39.15;22.44;100234.69;1679560;84;21327;-71
2021/08/02 10:51:56;;;;;;;21.05;9.50;;;;;;;38.94;22.63;100237.88;1701032;84;21279;-74
2021/08/02 10:54:39;;;;;;;13.25;7.55;;;;;;;38.71;22.78;100236.44;1696928;84;22123;-73
2021/08/02 10:57:14;;;;;;;13.55;8.03;;;;;;;38.56;22.59;100239.09;1696781;84;21617;-74
2021/08/02 10:59:47;;;;;;;13.70;7.33;;;;;;;38.42;22.62;100235.71;1697444;84;21347;-71
2021/08/02 11:02:21;;;;;;;9.23;7.33;;;;;;;38.22;22.15;100234.92;1695974;84;21347;-70
2021/08/02 11:04:55;;;;;;;8.48;6.35;;;;;;;37.98;22.26;100237.28;1696611;84;21307;-72
2021/08/02 11:07:32;;;;;;;7.37;6.58;;;;;;;37.78;22.05;100236.71;1696576;84;21313;-71
2021/08/02 11:10:07;;;;;;;10.08;6.25;;;;;;;37.73;22.27;100227.31;1697010;84;21498;-69
2021/08/02 11:12:48;;;;;;;9.65;6.65;;;;;;;37.76;21.88;100223.93;1699689;84;21355;-74
2021/08/02 11:15:21;;;;;;;7.58;5.80;;;;;;;37.88;22.09;100226.67;1702800;84;21300;-74
2021/08/02 11:17:55;;;;;;;9.63;6.10;;;;;;;38.04;21.75;100223.17;1697555;84;21339;-73
2021/08/02 11:20:29;;;;;;;11.48;6.12;;;;;;;38.16;21.22;100219.25;1697117;84;22167;-72
2021/08/02 11:23:03;;;;;;;8.45;6.03;;;;;;;38.26;21.08;100223.61;1676619;84;21236;-75
2021/08/02 11:25:40;;;;;;;15.78;6.85;;;;;;;38.34;21.06;100218.72;1695883;84;21346;-73
2021/08/02 11:28:13;;;;;;;12.25;6.15;;;;;;;38.37;21.20;100216.72;1692735;84;21383;-73
2021/08/02 11:30:51;;;;;;;10.50;6.33;;;;;;;38.39;21.03;100210.36;1692569;84;21356;-75
2021/08/02 11:33:33;;;;;;;8.10;5.83;;;;;;;38.39;21.23;100219.38;1691746;84;21355;-73
2021/08/02 11:36:08;;;;;;;9.33;6.65;;;;;;;38.40;20.94;100207.33;1696231;84;21456;-74
2021/08/02 11:38:41;;;;;;;9.15;6.40;;;;;;;38.33;21.07;100212.44;1698130;84;21471;-74
2021/08/02 11:41:29;;;;;;;8.48;7.40;;;;;;;38.27;21.10;100209.60;1693590;84;21311;-73
2021/08/02 11:44:02;;;;;;;9.70;7.42;;;;;;;38.23;21.30;100198.27;1691527;84;21346;-74
2021/08/02 11:46:36;;;;;;;13.78;7.60;;;;;;;38.13;21.72;100205.41;1692373;84;21571;-72
2021/08/02 11:49:13;;;;;;;9.78;8.05;;;;;;;38.10;21.79;100198.64;1691678;84;22150;-73
2021/08/02 11:51:46;;;;;;;12.47;8.25;;;;;;;38.12;22.11;100199.71;1672292;84;21225;-73
2021/08/02 11:54:25;;;;;;;15.55;9.03;;;;;;;38.08;22.10;100189.96;1691362;84;21232;-73
2021/08/02 11:56:59;;;;;;;21.68;9.85;;;;;;;38.06;22.06;100186.75;1692549;84;21205;-76
2021/08/02 11:59:32;;;;;;;11.10;8.85;;;;;;;38.03;21.98;100189.30;1692765;84;21347;-73
2021/08/02 12:02:06;;;;;;;11.35;8.53;;;;;;;38.00;22.00;100181.77;1698448;84;21213;-73
2021/08/02 12:04:58;;;;;;;11.25;8.03;;;;;;;37.98;21.89;100177.15;1692524;84;21228;-74
2021/08/02 12:07:50;;;;;;;11.80;8.23;;;;;;;37.96;21.71;100178.84;1692563;84;21647;-74
2021/08/02 12:10:24;;;;;;;14.53;9.08;;;;;;;37.93;21.63;100174.59;1692864;84;21998;-74
2021/08/02 12:13:13;;;;;;;12.50;8.90;;;;;;;37.89;21.81;100176.34;1690664;84;21323;-72
2021/08/02 12:15:58;;;;;;;11.60;7.78;;;;;;;37.84;21.88;100169.66;1693106;84;21772;-72
2021/08/02 12:18:32;;;;;;;12.75;8.68;;;;;;;37.71;22.06;100172.75;1693322;84;21249;-73
2021/08/02 12:21:25;;;;;;;13.03;8.43;;;;;;;37.58;22.09;100167.64;1694620;84;21301;-76
2021/08/02 12:24:14;;;;;;;10.65;8.30;;;;;;;37.53;22.18;100162.31;1694403;84;21327;-74
2021/08/02 12:26:53;;;;;;;13.60;7.80;;;;;;;37.49;22.08;100161.91;1696248;84;21249;-73
2021/08/02 12:29:28;;;;;;;11.38;8.35;;;;;;;37.49;22.19;100156.45;1691327;84;21186;-70
2021/08/02 12:32:04;;;;;;;14.28;8.15;;;;;;;37.52;22.42;100154.45;1692128;84;21319;-70
2021/08/02 12:34:38;;;;;;;13.75;7.72;;;;;;;37.55;22.70;100159.26;1691254;84;21325;-72
2021/08/02 12:37:12;;;;;;;11.88;8.38;;;;;;;37.60;22.49;100154.47;1694379;84;21198;-70
2021/08/02 12:39:45;;;;;;;12.75;7.95;;;;;;;37.62;21.95;100144.58;1691690;84;21226;-69
2021/08/02 12:42:29;;;;;;;11.57;7.03;;;;;;;37.63;21.91;100153.03;1643120;86;21353;-71
2021/08/02 12:45:02;;;;;;;13.15;7.83;;;;;;;37.58;22.03;100144.42;1650619;86;21212;-69
2021/08/02 12:47:36;;;;;;;13.05;7.05;;;;;;;37.57;22.39;100140.06;1651691;86;21200;-71
2021/08/02 12:50:12;;;;;;;12.15;6.75;;;;;;;37.57;21.91;100139.28;1657188;85;21236;-72
2021/08/02 12:52:46;;;;;;;21.00;7.17;;;;;;;37.50;20.76;100137.00;1654225;86;21308;-69
2021/08/02 12:59:28;;;;;;;8.95;5.55;;;;;;;37.40;21.50;100134.58;1652729;86;21471;-70
2021/08/02 13:02:02;;;;;;;11.48;5.85;;;;;;;37.31;21.55;100137.00;1651236;86;21232;-70
2021/08/02 13:04:35;;;;;;;14.43;6.05;;;;;;;37.24;21.41;100130.61;1652278;86;22173;-71
2021/08/02 13:07:09;;;;;;;15.25;6.67;;;;;;;37.11;21.49;100124.71;1651279;85;21287;-70
2021/08/02 13:09:43;;;;;;;13.83;6.12;;;;;;;36.98;21.84;100128.33;1654878;86;21342;-70
2021/08/02 13:12:19;;;;;;;13.08;6.08;;;;;;;36.92;22.37;100130.41;1652263;86;21228;-72
2021/08/02 13:14:53;;;;;;;11.93;6.28;;;;;;;36.89;21.95;100130.18;1656734;86;21638;-70
2021/08/02 13:17:26;;;;;;;12.53;6.37;;;;;;;36.83;21.96;100124.63;1651259;86;21292;-70
2021/08/02 13:31:13;;;;;;;13.68;6.20;;;;;;;36.59;22.21;100116.75;1679931;83;21522;-70
2021/08/02 13:33:46;;;;;;;13.78;6.10;;;;;;;36.49;22.87;100110.99;1677973;85;21323;-71
2021/08/02 13:36:21;;;;;;;10.05;5.70;;;;;;;36.48;22.46;100103.95;1681425;85;21272;-72
2021/08/02 13:38:55;;;;;;;9.23;5.83;;;;;;;36.44;22.48;100109.75;1685695;85;21347;-70
2021/08/02 13:41:30;;;;;;;8.55;5.65;;;;;;;36.42;22.32;100110.59;1679781;85;21235;-71
2021/08/02 13:44:03;;;;;;;11.03;5.33;;;;;;;36.41;22.25;100099.45;1682380;85;21307;-69
2021/08/02 13:46:35;;;;;;;;;;;;;;;36.41;22.01;100100.00;1682549;84;21200;-71
2021/08/02 13:49:09;;;;;;;7.70;4.12;;;;;;;36.36;21.76;100102.30;1680955;85;20209;-72
2021/08/02 13:51:42;;;;;;;11.35;4.37;;;;;;;36.30;21.48;100097.30;1681561;85;21603;-71
2021/08/02 13:58:10;;;;;;;7.07;4.70;;;;;;;36.23;22.00;100093.61;1682065;85;20221;-72
2021/08/02 14:00:43;;;;;;;12.45;4.22;;;;;;;36.15;22.08;100081.30;1680908;85;22028;-71
2021/08/02 14:03:17;;;;;;;6.97;4.10;;;;;;;36.10;22.25;100078.13;1682935;85;21311;-70
2021/08/02 14:05:50;;;;;;;5.47;4.35;;;;;;;36.08;22.00;100076.28;1681654;85;21331;-70
2021/08/02 14:08:27;;;;;;;8.63;4.70;;;;;;;36.04;22.05;100071.76;1680866;85;22140;-71
2021/08/02 14:11:02;;;;;;;8.40;4.67;;;;;;;36.00;22.12;100075.64;1681021;84;21323;-72
2021/08/02 14:13:36;;;;;;;17.35;5.00;;;;;;;35.96;22.10;100076.53;1679924;85;21216;-72
2021/08/02 14:16:12;;;;;;;10.08;4.40;;;;;;;35.91;22.23;100067.11;1679463;85;21236;-72
2021/08/02 14:19:12;;;;;;;6.30;3.72;;;;;;;35.86;22.35;100069.41;1681458;85;22095;-74
2021/08/02 14:21:46;;;;;;;7.62;3.83;;;;;;;35.83;22.29;100068.64;1681535;85;21378;-71
2021/08/02 14:24:19;;;;;;;16.82;4.42;;;;;;;35.80;22.28;100067.34;1684160;85;21688;-70
2021/08/02 14:26:52;;;;;;;12.15;3.83;;;;;;;35.80;22.53;100072.00;1686350;85;21185;-71
2021/08/02 14:29:25;;;;;;;6.95;3.70;;;;;;;35.78;22.68;100064.67;1684498;85;21271;-71
2021/08/02 14:32:02;;;;;;;5.83;3.62;;;;;;;35.77;22.59;100069.34;1684642;85;21350;-70
2021/08/02 14:34:35;;;;;;;5.78;3.62;;;;;;;35.74;22.47;100069.94;1684290;85;21794;-71
2021/08/02 14:37:09;;;;;;;8.78;3.67;;;;;;;35.67;22.19;100068.19;1683469;85;21303;-71
2021/08/02 14:39:47;;;;;;;7.33;3.80;;;;;;;35.61;22.41;100071.34;1684445;85;21279;-71
2021/08/02 14:42:20;;;;;;;5.28;3.87;;;;;;;35.53;22.58;100076.95;1684900;85;21296;-70
2021/08/02 14:44:57;;;;;;;7.95;3.75;;;;;;;35.50;22.92;100083.51;1683562;85;21307;-71
2021/08/02 14:47:33;;;;;;;7.65;4.08;;;;;;;35.45;22.80;100076.80;1683947;85;21209;-70
2021/08/02 14:50:14;;;;;;;6.75;4.58;;;;;;;35.40;22.95;100079.08;1686370;85;21851;-70
2021/08/02 14:52:47;;;;;;;8.43;4.00;;;;;;;35.34;22.98;100076.23;1684403;85;21228;-70
2021/08/02 14:55:20;;;;;;;11.22;4.35;;;;;;;35.30;22.98;100077.14;1684032;85;21271;-70
2021/08/02 14:57:53;;;;;;;13.28;4.22;;;;;;;35.25;23.08;100077.23;1683841;85;22178;-70
2021/08/02 15:00:25;;;;;;;;;;;;;;;35.16;23.09;100071.68;1687084;85;21137;-70
2021/08/02 15:02:58;;;;;;;6.40;4.00;;;;;;;35.09;23.21;100080.80;1684212;85;20166;-70
2021/08/02 15:05:32;;;;;;;5.08;3.77;;;;;;;35.00;23.28;100088.84;1683999;85;21275;-70
2021/08/02 15:08:05;;;;;;;7.78;4.12;;;;;;;34.94;23.32;100087.87;1683888;85;21192;-72
2021/08/02 15:10:41;;;;;;;6.85;4.17;;;;;;;34.87;23.40;100085.53;1684025;85;21324;-70
2021/08/02 15:13:15;;;;;;;7.47;4.10;;;;;;;34.82;23.74;100089.73;1683333;85;21758;-71
2021/08/02 15:15:57;;;;;;;7.67;4.20;;;;;;;34.77;23.72;100096.62;1686670;85;21307;-70
2021/08/02 15:19:02;;;;;;;10.35;4.60;;;;;;;34.70;23.95;100089.95;1662550;85;21239;-70
2021/08/02 15:21:42;;;;;;;7.85;4.53;;;;;;;34.65;24.11;100088.13;1684395;85;21158;-71
2021/08/02 15:24:17;;;;;;;7.42;4.10;;;;;;;34.58;24.53;100091.79;1682428;85;21287;-70
2021/08/02 15:27:06;;;;;;;7.87;4.40;;;;;;;34.52;24.25;100091.57;1683879;85;21756;-70
2021/08/02 15:29:41;;;;;;;7.60;4.12;;;;;;;34.46;24.34;100091.41;1682882;85;21176;-70
2021/08/02 15:32:20;;;;;;;7.45;4.10;;;;;;;34.39;24.49;100104.58;1681682;85;21149;-70
2021/08/02 15:34:53;;;;;;;8.33;4.55;;;;;;;34.31;24.34;100099.80;1683280;85;21379;-71
2021/08/02 15:37:26;;;;;;;11.00;4.47;;;;;;;34.26;24.50;100099.88;1684005;85;21790;-70
2021/08/02 15:39:59;;;;;;;11.15;4.42;;;;;;;34.19;24.71;100100.27;1685224;85;21292;-70
2021/08/02 15:42:32;;;;;;;8.28;4.37;;;;;;;34.14;24.86;100106.31;1682886;85;21284;-69
2021/08/02 15:45:18;;;;;;;7.03;4.15;;;;;;;34.08;25.17;100108.87;1677417;85;21186;-70
2021/08/02 15:47:53;;;;;;;8.43;4.08;;;;;;;34.01;25.34;100109.75;1673139;85;21772;-70
2021/08/02 15:50:38;;;;;;;8.10;4.15;;;;;;;33.94;25.71;100121.53;1674487;85;21272;-70
2021/08/02 15:53:09;;;;;;;12.65;5.30;;;;;;;33.85;25.94;100120.01;1674659;85;21296;-71
2021/08/02 15:55:47;;;;;;;9.15;4.83;;;;;;;33.77;26.25;100120.10;1674212;85;21284;-70
2021/08/02 15:58:27;;;;;;;10.32;4.40;;;;;;;33.69;26.43;100119.95;1673260;85;21931;-70
2021/08/02 16:00:59;;;;;;;8.18;4.17;;;;;;;33.61;26.47;100124.13;1674758;85;21862;-70
2021/08/02 16:03:39;;;;;;;9.73;4.60;;;;;;;33.53;26.41;100130.22;1677008;85;21189;-71
2021/08/02 16:06:12;;;;;;;12.05;4.60;;;;;;;33.44;26.61;100135.97;1674684;85;21822;-71
2021/08/02 16:09:07;;;;;;;7.42;4.40;;;;;;;33.35;26.71;100139.06;1673393;85;21194;-71
2021/08/02 16:11:52;;;;;;;7.75;4.92;;;;;;;33.25;26.73;100144.59;1674656;85;21324;-71
2021/08/02 16:14:26;;;;;;;6.50;4.50;;;;;;;33.15;26.89;100152.28;1674054;85;21304;-72
2021/08/02 16:17:00;;;;;;;6.65;4.33;;;;;;;33.06;27.13;100155.91;1674606;85;21276;-72
2021/08/02 16:19:33;;;;;;;;;;;;;;;32.96;27.35;100162.78;1677042;85;21307;-72
2021/08/02 16:22:08;;;;;;;8.60;5.00;;;;;;;32.85;27.57;100155.81;1674529;86;20226;-72
2021/08/02 16:24:41;;;;;;;10.58;4.62;;;;;;;32.73;27.78;100160.25;1674571;85;21277;-72
2021/08/02 16:27:15;;;;;;;10.78;4.78;;;;;;;32.61;28.03;100158.45;1677005;85;21943;-72
2021/08/02 16:29:48;;;;;;;8.20;4.87;;;;;;;32.40;28.30;100174.56;1674187;85;21569;-72
2021/08/02 16:32:21;;;;;;;8.55;4.78;;;;;;;32.40;28.30;100174.56;1674752;85;21276;-72
2021/08/02 16:34:54;;;;;;;11.10;4.83;;;;;;;32.27;28.34;100167.86;1674286;85;21201;-72
2021/08/02 16:37:28;;;;;;;11.15;4.62;;;;;;;32.16;28.59;100174.98;1674405;85;21158;-74
2021/08/02 16:40:01;;;;;;;10.93;5.30;;;;;;;32.04;28.72;100170.44;1674530;85;21359;-72
2021/08/02 16:42:34;;;;;;;;;;;;;;;31.92;28.84;100174.27;1677086;85;21154;-73
2021/08/02 16:45:10;;;;;;;11.95;5.58;;;;;;;31.81;29.01;100180.01;1674115;85;20234;-72
2021/08/02 16:47:43;;;;;;;9.63;5.12;;;;;;;31.68;29.17;100187.35;1675338;85;21364;-72
2021/08/02 16:50:16;;;;;;;11.88;6.05;;;;;;;31.56;29.38;100186.84;1657317;85;21331;-73
2021/08/02 16:52:49;;;;;;;7.40;4.72;;;;;;;31.46;29.52;100195.80;1678743;85;21197;-73
2021/08/02 16:55:22;;;;;;;8.73;5.47;;;;;;;31.34;29.68;100196.61;1675951;85;21763;-72
2021/08/02 16:57:55;;;;;;;7.75;5.28;;;;;;;31.23;29.83;100200.42;1676558;85;21208;-73
2021/08/02 17:00:27;;;;;;;10.10;5.50;;;;;;;31.13;30.11;100204.48;1676199;85;21751;-73
2021/08/02 17:03:01;;;;;;;14.55;7.30;;;;;;;31.03;30.30;100208.54;1676696;85;21284;-73
2021/08/02 17:05:34;;;;;;;39.98;23.55;;;;;;;30.93;30.52;100212.06;1675541;85;21303;-73
2021/08/02 17:08:07;;;;;;;51.35;29.10;;;;;;;30.82;30.63;100219.87;1676699;85;21363;-73
2021/08/02 17:10:40;;;;;;;54.00;30.90;;;;;;;30.74;30.84;100223.09;1676060;85;21284;-73
2021/08/02 17:13:13;;;;;;;57.80;33.33;;;;;;;30.64;30.98;100225.81;1677219;85;21189;-73
2021/08/02 17:15:47;;;;;;;37.83;22.25;;;;;;;30.54;31.13;100229.30;1678231;85;21308;-74
2021/08/02 17:18:20;;;;;;;18.80;10.65;;;;;;;30.46;31.32;100235.22;1676608;85;21341;-73
2021/08/02 17:20:55;;;;;;;18.07;7.75;;;;;;;30.36;31.49;100230.31;1676027;85;21178;-73
2021/08/02 17:23:27;;;;;;;22.05;8.73;;;;;;;30.27;31.82;100232.70;1676338;85;21363;-73
2021/08/02 17:26:01;;;;;;;14.75;6.90;;;;;;;30.19;32.36;100241.31;1676013;85;21780;-72
2021/08/02 17:28:34;;;;;;;12.82;6.45;;;;;;;30.11;32.50;100245.89;1676316;85;21723;-73
2021/08/02 17:31:08;;;;;;;15.88;7.22;;;;;;;30.00;32.60;100245.02;1675905;85;21240;-73
2021/08/02 17:33:42;;;;;;;54.45;10.68;;;;;;;29.92;32.99;100250.94;1676687;85;21305;-73
2021/08/02 17:36:17;;;;;;;37.88;9.88;;;;;;;29.84;33.88;100249.26;1675791;85;21807;-72
2021/08/02 17:38:50;;;;;;;46.98;10.15;;;;;;;29.73;34.92;100258.35;1677465;85;21304;-74
2021/08/02 17:41:23;;;;;;;26.02;8.48;;;;;;;29.60;35.93;100255.57;1677248;85;21201;-73
2021/08/02 17:43:56;;;;;;;26.23;8.05;;;;;;;29.49;36.61;100255.24;1676654;85;22141;-73
2021/08/02 17:46:30;;;;;;;33.30;8.23;;;;;;;29.34;37.08;100251.08;1677391;85;21851;-73
2021/08/02 17:49:05;;;;;;;25.52;7.97;;;;;;;29.20;37.61;100248.02;1683806;85;21199;-72
2021/08/02 17:51:38;;;;;;;32.75;8.68;;;;;;;29.06;38.13;100255.41;1683244;85;21376;-72
2021/08/02 17:54:11;;;;;;;28.00;8.58;;;;;;;28.93;38.58;100260.69;1684444;85;21279;-72
2021/08/02 17:56:44;;;;;;;23.70;8.63;;;;;;;28.79;39.04;100260.82;1683565;85;21320;-72
2021/08/02 17:59:17;;;;;;;35.83;8.93;;;;;;;28.66;39.28;100248.56;1684327;85;21165;-72
2021/08/02 18:01:52;;;;;;;33.40;8.00;;;;;;;28.55;39.71;100248.16;1683701;85;21743;-71
2021/08/02 18:04:27;;;;;;;26.42;8.18;;;;;;;28.45;40.02;100253.43;1686340;85;21268;-72
2021/08/02 18:07:00;;;;;;;24.35;9.93;;;;;;;28.34;40.33;100255.74;1683460;85;21835;-72
2021/08/02 18:09:34;;;;;;;63.23;30.50;;;;;;;28.24;40.77;100254.80;1683540;85;21827;-72
2021/08/02 18:12:08;;;;;;;120.85;63.23;;;;;;;28.13;41.37;100253.87;1683614;85;21216;-70
2021/08/02 18:14:42;;;;;;;76.17;37.95;;;;;;;28.02;41.86;100256.14;1684284;85;21291;-70
2021/08/02 18:17:15;;;;;;;68.40;34.70;;;;;;;27.91;42.17;100261.09;1683978;85;21307;-71
2021/08/02 18:19:51;;;;;;;69.82;33.08;;;;;;;27.81;42.37;100256.91;1683319;85;21229;-70
2021/08/02 18:22:25;;;;;;;36.23;18.62;;;;;;;27.70;42.85;100258.66;1683937;85;21184;-71
2021/08/02 18:24:59;;;;;;;38.10;11.35;;;;;;;27.58;43.10;100260.63;1684246;85;21632;-70
2021/08/02 18:27:32;;;;;;;32.80;11.38;;;;;;;27.45;43.15;100266.34;1684623;85;21291;-71
2021/08/02 18:30:06;;;;;;;48.02;21.52;;;;;;;27.34;43.66;100269.91;1684735;85;21695;-71
2021/08/02 18:32:43;;;;;;;39.88;17.30;;;;;;;27.24;44.42;100265.70;1683661;85;21903;-71
2021/08/02 18:35:16;;;;;;;32.83;14.87;;;;;;;27.14;44.66;100264.19;1684669;85;21336;-71
2021/08/02 18:37:55;;;;;;;36.50;14.87;;;;;;;27.04;44.72;100263.48;1683381;85;21220;-70